KLNS

Lancaster Airport

Lancaster, Pennsylvania, USA
METAR KLNS 201853Z 28011G19KT 10SM BKN075 17/08 A2968 RMK AO2 SLP051 T01670083
Observed Flight Rules
Oct-20 @ 18:53 UTC (28 minutes ago) Visual Flight Rules
Wind Visibility Clouds
280° at 11 knots
 Gusting to 19 knots
10 miles
  • Broken at 7,500' AGL
Temperatures Readings
Current 17°C / 63°F
Dewpoint 8°C / 46°F
Humidity 56%
Altimeter 29.68" Hg
Pressure 1005.1 hPa
Elevation 125
METAR KLNS 201853Z 28011G19KT 10SM BKN075 17/08 A2968 RMK AO2 SLP051 T01670083
Observed Flight Rules
Oct-20 @ 18:53 UTC
(28 minutes ago)
VFR
Wind Visibility
280° at 11 knots
 Gusting to 19 knots
10 miles
Clouds
  • Broken at 7,500' AGL
Temperature Dewpoint
17°C / 63°F 8°C / 46°F
Humidity Altimeter Pressure
56% 29.68" Hg 1005.1 hPa